createdAt,value
2018-11-04T00:00:18.666Z,101506.27
2018-11-04T00:02:48.190Z,101508.46
2018-11-04T00:05:17.460Z,101502.83
2018-11-04T00:07:47.488Z,101500.23
2018-11-04T00:10:16.329Z,101502.74
2018-11-04T00:12:45.529Z,101497.15
2018-11-04T00:15:14.681Z,101484.59
2018-11-04T00:17:43.443Z,101490.17
2018-11-04T00:20:14.210Z,101481.95
2018-11-04T00:22:43.806Z,101484.09
2018-11-04T00:25:14.030Z,101477.16
2018-11-04T00:27:43.631Z,101472.83
2018-11-04T00:30:18.374Z,101477.16
2018-11-04T00:32:47.016Z,101474.13
2018-11-04T00:35:15.507Z,101465.86
2018-11-04T00:37:44.195Z,101461.95
2018-11-04T00:40:12.994Z,101463.25
2018-11-04T00:45:16.332Z,101453.29
2018-11-04T00:47:44.799Z,101451.95
2018-11-04T00:50:15.180Z,101443.32
2018-11-04T00:52:44.206Z,101448.47
2018-11-04T00:55:13.931Z,101458.42
2018-11-04T00:57:42.816Z,101455.39
2018-11-04T01:00:16.388Z,101457.09
2018-11-04T01:02:45.985Z,101448.86
2018-11-04T01:05:14.572Z,101453.24
2018-11-04T01:07:43.088Z,101451.50
2018-11-04T01:10:12.610Z,101446.31
2018-11-04T01:12:42.446Z,101438.49
2018-11-04T01:15:13.092Z,101433.31
2018-11-04T01:17:42.458Z,101421.16
2018-11-04T01:20:14.043Z,101421.55
2018-11-04T01:25:17.677Z,101427.63
2018-11-04T01:27:46.226Z,101416.41
2018-11-04T01:30:17.608Z,101416.81
2018-11-04T01:32:46.277Z,101419.00
2018-11-04T01:35:14.956Z,101410.78
2018-11-04T01:37:43.435Z,101406.05
2018-11-04T01:40:12.039Z,101399.97
2018-11-04T01:42:40.754Z,101398.27
2018-11-04T01:45:11.255Z,101393.08
2018-11-04T01:47:39.976Z,101390.90
2018-11-04T01:50:10.969Z,101387.86
2018-11-04T01:52:39.404Z,101383.11
2018-11-04T01:55:09.513Z,101378.34
2018-11-04T01:57:38.813Z,101380.04
2018-11-04T02:00:11.601Z,101375.25
2018-11-04T02:02:40.196Z,101364.44
2018-11-04T02:05:10.614Z,101364.48
2018-11-04T02:07:39.144Z,101360.16
2018-11-04T02:10:09.017Z,101355.81
2018-11-04T02:12:37.515Z,101355.42
2018-11-04T02:15:08.534Z,101351.12
2018-11-04T02:17:38.039Z,101345.09
2018-11-04T02:20:08.253Z,101338.61
2018-11-04T02:22:36.657Z,101335.56
2018-11-04T02:25:05.739Z,101336.45
2018-11-04T02:27:34.937Z,101338.56
2018-11-04T02:30:03.815Z,101333.83
2018-11-04T02:32:33.374Z,101326.05
2018-11-04T02:35:01.887Z,101326.91
2018-11-04T02:37:30.400Z,101315.23
2018-11-04T02:39:59.092Z,101313.94
2018-11-04T02:42:28.272Z,101313.98
2018-11-04T02:44:56.854Z,101312.23
2018-11-04T02:47:25.754Z,101307.91
2018-11-04T02:49:54.900Z,101310.53
2018-11-04T02:52:23.574Z,101304.50
2018-11-04T02:54:52.108Z,101299.73
2018-11-04T02:57:20.891Z,101307.94
2018-11-04T02:59:49.583Z,101301.02
2018-11-04T03:02:18.165Z,101292.84
2018-11-04T03:04:46.769Z,101297.58
2018-11-04T03:07:15.261Z,101295.84
2018-11-04T03:09:44.521Z,101296.72
2018-11-04T03:12:13.434Z,101294.09
2018-11-04T03:14:41.931Z,101293.20
2018-11-04T03:17:10.492Z,101290.65
2018-11-04T03:19:40.129Z,101288.50
2018-11-04T03:22:09.240Z,101277.69
2018-11-04T03:24:38.183Z,101284.61
2018-11-04T03:27:06.837Z,101282.39
2018-11-04T03:29:36.231Z,101271.58
2018-11-04T03:32:04.879Z,101278.95
2018-11-04T03:34:33.492Z,101271.21
2018-11-04T03:37:02.085Z,101278.63
2018-11-04T03:39:30.488Z,101273.92
2018-11-04T03:41:59.120Z,101271.41
2018-11-04T03:44:27.643Z,101269.26
2018-11-04T03:46:56.438Z,101271.52
2018-11-04T03:49:24.898Z,101273.78
2018-11-04T03:51:53.384Z,101271.70
2018-11-04T03:54:22.022Z,101277.85
2018-11-04T03:56:50.553Z,101270.52
2018-11-04T03:59:19.109Z,101274.13
2018-11-04T04:01:47.668Z,101273.77
2018-11-04T04:04:16.325Z,101270.76
2018-11-04T04:06:44.754Z,101262.97
2018-11-04T04:09:14.663Z,101261.71
2018-11-04T04:11:43.062Z,101256.52
2018-11-04T04:14:11.488Z,101267.79
2018-11-04T04:16:40.124Z,101263.86
2018-11-04T04:19:09.232Z,101262.12
2018-11-04T04:21:37.657Z,101261.20
2018-11-04T04:24:06.438Z,101263.76
2018-11-04T04:26:34.978Z,101263.21
2018-11-04T04:29:03.515Z,101256.21
2018-11-04T04:31:31.955Z,101262.66
2018-11-04T04:34:05.864Z,101261.77
2018-11-04T04:36:34.293Z,101257.00
2018-11-04T04:39:06.897Z,101256.14
2018-11-04T04:41:35.340Z,101248.33
2018-11-04T04:44:03.903Z,101248.77
2018-11-04T04:46:32.313Z,101242.29
2018-11-04T04:49:01.175Z,101247.91
2018-11-04T04:51:29.763Z,101240.14
2018-11-04T04:53:58.421Z,101239.28
2018-11-04T04:56:27.877Z,101237.55
2018-11-04T04:58:56.430Z,101241.03
2018-11-04T05:01:25.217Z,101241.03
2018-11-04T05:04:00.149Z,101239.35
2018-11-04T05:06:28.540Z,101234.17
2018-11-04T05:08:57.381Z,101229.02
2018-11-04T05:11:26.278Z,101229.02
2018-11-04T05:13:56.565Z,101232.53
2018-11-04T05:16:25.297Z,101223.55
2018-11-04T05:18:53.861Z,101221.84
2018-11-04T05:21:22.310Z,101221.47
2018-11-04T05:23:50.772Z,101220.64
2018-11-04T05:26:19.610Z,101211.59
2018-11-04T05:28:48.188Z,101205.58
2018-11-04T05:31:16.857Z,101209.09
2018-11-04T05:33:45.368Z,101211.72
2018-11-04T05:36:13.875Z,101206.56
2018-11-04T05:38:42.494Z,101210.01
2018-11-04T05:41:10.902Z,101213.45
2018-11-04T05:43:39.319Z,101203.91
2018-11-04T05:46:08.138Z,101207.80
2018-11-04T05:48:36.540Z,101200.87
2018-11-04T05:51:05.218Z,101202.17
2018-11-04T05:53:33.945Z,101197.86
2018-11-04T05:56:05.318Z,101200.52
2018-11-04T05:58:33.837Z,101199.24
2018-11-04T06:01:02.521Z,101200.19
2018-11-04T06:03:31.013Z,101201.10
2018-11-04T06:05:59.520Z,101198.12
2018-11-04T06:08:27.942Z,101194.26
2018-11-04T06:10:56.368Z,101195.58
2018-11-04T06:13:25.550Z,101192.57
2018-11-04T06:15:54.093Z,101189.13
2018-11-04T06:18:23.441Z,101191.27
2018-11-04T06:20:51.881Z,101192.59
2018-11-04T06:23:20.576Z,101182.66
2018-11-04T06:25:49.261Z,101189.62
2018-11-04T06:28:18.421Z,101193.09
2018-11-04T06:30:46.828Z,101187.92
2018-11-04T06:33:15.336Z,101190.98
2018-11-04T06:35:43.865Z,101184.94
2018-11-04T06:38:12.965Z,101188.00
2018-11-04T06:40:41.466Z,101193.25
2018-11-04T06:43:11.047Z,101196.72
2018-11-04T06:45:39.530Z,101205.02
2018-11-04T06:48:08.049Z,101204.59
2018-11-04T07:10:45.123Z,101201.30
2018-11-04T07:13:13.570Z,101200.05
2018-11-04T07:15:42.343Z,101193.11
2018-11-04T07:18:10.774Z,101197.94
2018-11-04T07:20:39.259Z,101195.39
2018-11-04T07:23:07.811Z,101193.25
2018-11-04T07:25:36.261Z,101197.59
2018-11-04T07:28:05.012Z,101194.60
2018-11-04T07:30:33.460Z,101190.31
2018-11-04T07:33:01.855Z,101194.65
2018-11-04T07:35:30.372Z,101194.67
2018-11-04T07:37:58.775Z,101197.77
2018-11-04T07:40:27.953Z,101180.84
2018-11-04T07:42:56.418Z,101185.22
2018-11-04T07:45:25.109Z,101183.08
2018-11-04T07:47:53.674Z,101183.08
2018-11-04T07:50:23.119Z,101178.34
2018-11-04T07:52:51.688Z,101179.64
2018-11-04T07:55:20.370Z,101175.73
2018-11-04T07:57:49.043Z,101162.74
2018-11-04T08:00:17.516Z,101166.22
2018-11-04T08:02:46.141Z,101165.33
2018-11-04T08:05:14.757Z,101157.53
2018-11-04T08:07:43.362Z,101166.64
2018-11-04T08:10:12.957Z,101154.94
2018-11-04T08:12:41.603Z,101155.84
2018-11-04T08:15:11.068Z,101150.28
2018-11-04T08:17:40.398Z,101148.59
2018-11-04T08:20:09.584Z,101142.55
2018-11-04T08:22:38.733Z,101142.56
2018-11-04T08:25:07.301Z,101138.27
2018-11-04T08:27:36.750Z,101140.04
2018-11-04T08:30:06.918Z,101138.79
2018-11-04T08:32:35.521Z,101131.42
2018-11-04T08:35:07.869Z,101136.25
2018-11-04T08:37:36.492Z,101134.97
2018-11-04T08:40:05.426Z,101132.85
2018-11-04T08:42:33.822Z,101135.47
2018-11-04T08:45:02.379Z,101128.14
2018-11-04T08:47:31.121Z,101118.16
2018-11-04T08:50:00.325Z,101125.98
2018-11-04T08:52:28.899Z,101128.59
2018-11-04T08:54:57.680Z,101129.46
2018-11-04T08:57:26.267Z,101129.48
2018-11-04T09:02:29.358Z,101126.42
2018-11-04T09:05:01.653Z,101124.27
2018-11-04T09:07:30.351Z,101128.59
2018-11-04T09:10:02.493Z,101129.47
2018-11-04T09:12:31.399Z,101125.14
2018-11-04T09:15:00.044Z,101125.98
2018-11-04T09:17:28.586Z,101125.13
2018-11-04T09:19:58.192Z,101119.91
2018-11-04T09:22:26.868Z,101121.20
2018-11-04T09:27:30.561Z,101105.55
2018-11-04T09:29:59.694Z,101098.57
2018-11-04T09:32:28.794Z,101101.61
2018-11-04T09:34:57.388Z,101100.75
2018-11-04T09:37:25.816Z,101100.72
2018-11-04T09:39:54.463Z,101098.11
2018-11-04T09:42:23.116Z,101104.17
2018-11-04T09:44:51.726Z,101101.98
2018-11-04T09:47:20.264Z,101101.55
2018-11-04T09:49:55.409Z,101094.98
2018-11-04T09:52:23.893Z,101091.89
2018-11-04T09:54:52.453Z,101089.27
2018-11-04T09:57:24.797Z,101090.98
2018-11-04T09:59:53.925Z,101088.33
2018-11-04T10:02:22.591Z,101086.59
2018-11-04T10:04:51.784Z,101073.48
2018-11-04T10:07:20.359Z,101076.96
2018-11-04T10:09:48.932Z,101083.02
2018-11-04T10:12:17.883Z,101081.69
2018-11-04T10:14:46.417Z,101081.66
2018-11-04T10:17:15.690Z,101082.06
2018-11-04T10:19:44.404Z,101084.65
2018-11-04T10:22:12.905Z,101077.63
2018-11-04T10:24:41.488Z,101071.92
2018-11-04T10:27:09.970Z,101072.31
2018-11-04T10:29:38.611Z,101070.98
2018-11-04T10:32:07.241Z,101065.27
2018-11-04T10:34:35.787Z,101058.23
2018-11-04T10:37:04.354Z,101057.31
2018-11-04T10:39:33.069Z,101056.81
2018-11-04T10:42:01.661Z,101056.32
2018-11-04T10:44:30.251Z,101049.32
2018-11-04T10:46:58.894Z,101053.63
2018-11-04T10:49:27.461Z,101043.50
2018-11-04T10:51:56.052Z,101034.22
2018-11-04T10:54:25.579Z,101027.55
2018-11-04T10:56:54.334Z,101021.80
2018-11-04T10:59:23.564Z,101014.36
2018-11-04T11:01:52.008Z,101018.19
2018-11-04T11:04:21.575Z,101015.94
2018-11-04T11:06:50.079Z,101013.25
2018-11-04T11:09:18.722Z,101003.02
2018-11-04T11:11:47.308Z,100994.62
2018-11-04T11:14:16.591Z,100994.41
2018-11-04T11:16:45.463Z,100985.00
2018-11-04T11:19:14.142Z,100975.61
2018-11-04T11:21:42.789Z,100978.09
2018-11-04T11:24:11.265Z,100972.94
2018-11-04T11:26:40.069Z,100972.66
2018-11-04T11:29:08.754Z,100961.94
2018-11-04T11:31:37.213Z,100964.05
2018-11-04T11:34:06.025Z,100949.15
2018-11-04T11:36:34.982Z,100950.46
2018-11-04T11:39:03.753Z,100948.73
2018-11-04T11:41:33.601Z,100943.89
2018-11-04T11:44:02.841Z,100941.00
2018-11-04T11:46:31.425Z,100940.31
2018-11-04T11:49:00.305Z,100933.77
2018-11-04T11:51:29.157Z,100931.45
2018-11-04T11:53:57.853Z,100926.88
2018-11-04T11:56:27.664Z,100916.48
2018-11-04T11:58:57.076Z,100917.84
2018-11-04T12:01:25.790Z,100911.53
2018-11-04T12:03:54.372Z,100915.27
2018-11-04T12:06:22.962Z,100911.14
2018-11-04T12:08:51.639Z,100910.82
2018-11-04T12:11:20.129Z,100896.59
2018-11-04T12:13:48.795Z,100893.91
2018-11-04T12:16:17.940Z,100889.68
2018-11-04T12:18:46.550Z,100888.33
2018-11-04T12:21:15.192Z,100887.48
2018-11-04T12:23:43.864Z,100884.20
2018-11-04T12:26:12.761Z,100885.79
2018-11-04T12:28:41.364Z,100880.34
2018-11-04T12:31:09.834Z,100873.08
2018-11-04T12:33:39.006Z,100873.84
2018-11-04T12:36:07.741Z,100866.22
2018-11-04T12:38:36.588Z,100867.10
2018-11-04T12:41:05.674Z,100862.34
2018-11-04T12:43:34.835Z,100864.63
2018-11-04T12:46:03.805Z,100862.26
2018-11-04T12:48:39.229Z,100854.92
2018-11-04T12:51:13.652Z,100849.25
2018-11-04T12:53:42.410Z,100844.66
2018-11-04T12:56:11.008Z,100839.41
2018-11-04T12:58:39.716Z,100838.17
2018-11-04T13:01:09.188Z,100834.05
2018-11-04T13:03:37.782Z,100835.91
2018-11-04T13:06:06.703Z,100831.66
2018-11-04T13:08:35.326Z,100829.43
2018-11-04T13:11:03.826Z,100827.81
2018-11-04T13:13:32.746Z,100823.72
2018-11-04T13:16:01.291Z,100825.17
2018-11-04T13:18:29.867Z,100812.41
2018-11-04T13:20:58.450Z,100813.65
2018-11-04T13:23:26.985Z,100809.11
2018-11-04T13:25:56.195Z,100807.58
2018-11-04T13:28:25.082Z,100793.13
2018-11-04T13:30:53.663Z,100798.88
2018-11-04T13:33:22.449Z,100784.33
2018-11-04T13:35:50.922Z,100783.30
2018-11-04T13:38:19.654Z,100776.23
2018-11-04T13:40:54.688Z,100768.73
2018-11-04T13:43:23.640Z,100771.31
2018-11-04T13:45:52.173Z,100762.16
2018-11-04T13:48:21.022Z,100757.70
2018-11-04T13:50:49.649Z,100757.50
2018-11-04T13:53:18.417Z,100753.04
2018-11-04T13:55:47.057Z,100750.77
2018-11-04T13:58:15.620Z,100751.12
2018-11-04T14:00:44.126Z,100743.61
2018-11-04T14:03:12.652Z,100752.42
2018-11-04T14:05:41.401Z,100745.64
2018-11-04T14:08:10.083Z,100737.69
2018-11-04T14:10:39.365Z,100734.62
2018-11-04T14:13:07.917Z,100742.00
2018-11-04T14:15:38.342Z,100738.82
2018-11-04T14:18:06.933Z,100735.20
2018-11-04T14:20:35.875Z,100747.73
2018-11-04T14:23:04.391Z,100740.56
2018-11-04T14:25:36.247Z,100740.69
2018-11-04T14:28:05.216Z,100743.09
2018-11-04T14:30:33.825Z,100748.44
2018-11-04T14:33:02.524Z,100743.73
2018-11-04T14:35:31.320Z,100739.48
2018-11-04T14:37:59.958Z,100744.44
2018-11-04T14:40:32.387Z,100746.40
2018-11-04T14:43:01.052Z,100745.27
2018-11-04T14:45:29.657Z,100749.34
2018-11-04T14:48:05.507Z,100743.36
2018-11-04T14:50:34.300Z,100741.75
2018-11-04T14:53:03.014Z,100737.05
2018-11-04T14:55:31.620Z,100733.28
2018-11-04T14:58:00.239Z,100740.45
2018-11-04T15:00:33.404Z,100738.86
2018-11-04T15:03:03.640Z,100739.83
2018-11-04T15:05:32.481Z,100745.62
2018-11-04T15:08:00.961Z,100741.84
2018-11-04T15:10:29.509Z,100741.48
2018-11-04T15:12:58.031Z,100744.27
2018-11-04T15:15:26.685Z,100742.59
2018-11-04T15:17:55.398Z,100738.34
2018-11-04T15:20:24.036Z,100740.23
2018-11-04T15:22:53.352Z,100738.09
2018-11-04T15:25:22.889Z,100726.36
2018-11-04T15:27:51.655Z,100727.27
2018-11-04T15:30:20.428Z,100726.47
2018-11-04T15:32:49.251Z,100715.67
2018-11-04T15:35:18.499Z,100711.40
2018-11-04T15:37:47.131Z,100709.75
2018-11-04T15:40:17.646Z,100712.49
2018-11-04T15:42:47.168Z,100697.33
2018-11-04T15:45:16.455Z,100704.00
2018-11-04T15:47:45.279Z,100701.06
2018-11-04T15:50:15.565Z,100703.77
2018-11-04T15:52:44.049Z,100706.06
2018-11-04T15:55:12.668Z,100709.23
2018-11-04T15:57:41.602Z,100711.48
2018-11-04T16:00:13.441Z,100705.49
2018-11-04T16:02:42.780Z,100707.72
2018-11-04T16:07:45.846Z,100708.84
2018-11-04T16:10:15.893Z,100704.13
2018-11-04T16:12:44.641Z,100705.52
2018-11-04T16:15:14.714Z,100699.50
2018-11-04T16:17:43.949Z,100699.11
2018-11-04T16:20:13.982Z,100699.61
2018-11-04T16:22:43.327Z,100702.31
2018-11-04T16:25:12.611Z,100704.19
2018-11-04T16:27:41.642Z,100703.38
2018-11-04T16:30:11.746Z,100707.37
2018-11-04T16:32:41.222Z,100707.45
2018-11-04T16:35:11.410Z,100711.87
2018-11-04T16:37:41.575Z,100708.42
2018-11-04T16:40:10.715Z,100708.50
2018-11-04T16:42:39.556Z,100707.25
2018-11-04T16:45:16.792Z,100699.94
2018-11-04T16:47:45.492Z,100699.09
2018-11-04T16:50:15.410Z,100695.16
2018-11-04T16:52:45.337Z,100696.97
2018-11-04T16:55:14.265Z,100702.27
2018-11-04T16:57:43.382Z,100699.66
2018-11-04T17:00:12.619Z,100697.12
2018-11-04T17:02:41.178Z,100698.05
2018-11-04T17:05:11.177Z,100701.58
2018-11-04T17:07:39.988Z,100699.02
2018-11-04T17:10:09.107Z,100697.79
2018-11-04T17:12:37.869Z,100695.20
2018-11-04T17:15:08.807Z,100693.06
2018-11-04T17:17:37.320Z,100677.89
2018-11-04T17:25:01.312Z,100686.23
2018-11-04T17:27:33.494Z,100678.91
2018-11-04T17:30:02.317Z,100682.85
2018-11-04T17:35:05.153Z,100693.80
2018-11-04T17:37:33.899Z,100690.78
2018-11-04T17:40:02.788Z,100697.79
2018-11-04T17:49:59.107Z,100696.66
2018-11-04T17:52:28.288Z,100704.56
2018-11-04T17:54:56.977Z,100693.27
2018-11-04T17:57:25.725Z,100693.75
2018-11-04T17:59:55.129Z,100693.34
2018-11-04T18:02:23.917Z,100696.86
2018-11-04T18:04:52.689Z,100689.02
2018-11-04T18:07:21.192Z,100685.13
2018-11-04T18:09:49.692Z,100683.42
2018-11-04T18:12:19.108Z,100676.88
2018-11-04T18:14:47.642Z,100675.16
2018-11-04T18:17:16.286Z,100666.02
2018-11-04T18:19:44.989Z,100664.75
2018-11-04T18:22:13.651Z,100676.53
2018-11-04T18:24:44.884Z,100670.05
2018-11-04T18:27:13.344Z,100670.05
2018-11-04T18:29:42.792Z,100669.63
2018-11-04T18:32:13.915Z,100663.11
2018-11-04T18:34:43.117Z,100673.61
2018-11-04T18:37:11.761Z,100668.39
2018-11-04T18:39:41.000Z,100670.59
2018-11-04T18:42:09.734Z,100657.58
2018-11-04T18:44:38.657Z,100653.67
2018-11-04T18:47:07.684Z,100658.94
2018-11-04T18:49:36.233Z,100658.95
2018-11-04T18:52:05.231Z,100657.23
2018-11-04T18:54:34.720Z,100655.50
2018-11-04T18:57:04.331Z,100656.80
2018-11-04T18:59:33.334Z,100655.06
2018-11-04T19:02:02.543Z,100655.50
2018-11-04T19:04:31.334Z,100646.34
2018-11-04T19:07:00.061Z,100646.78
2018-11-04T19:09:29.302Z,100647.23
2018-11-04T19:11:58.095Z,100647.23
2018-11-04T19:14:27.756Z,100641.59
2018-11-04T19:16:56.718Z,100645.10
2018-11-04T19:19:25.952Z,100639.45
2018-11-04T19:21:55.398Z,100643.80
2018-11-04T19:24:24.357Z,100646.46
2018-11-04T19:26:53.091Z,100652.16
2018-11-04T19:29:21.735Z,100654.78
2018-11-04T19:31:51.481Z,100648.66
2018-11-04T19:34:20.482Z,100637.37
2018-11-04T19:39:23.512Z,100626.98
2018-11-04T19:44:26.791Z,100626.58
2018-11-04T19:46:55.303Z,100624.42
2018-11-04T19:49:26.108Z,100624.02
2018-11-04T19:52:06.397Z,100610.53
2018-11-04T19:54:36.907Z,100614.45
2018-11-04T19:57:05.714Z,100613.19
2018-11-04T19:59:34.397Z,100613.63
2018-11-04T20:02:03.171Z,100611.94
2018-11-04T20:04:31.748Z,100614.98
2018-11-04T20:07:00.241Z,100626.30
2018-11-04T20:09:28.897Z,100629.77
2018-11-04T20:11:58.302Z,100625.00
2018-11-04T20:14:26.964Z,100628.47
2018-11-04T20:16:55.600Z,100634.56
2018-11-04T20:19:31.742Z,100634.14
2018-11-04T20:22:00.220Z,100632.38
2018-11-04T20:24:34.099Z,100625.00
2018-11-04T20:27:02.678Z,100630.22
2018-11-04T20:29:31.237Z,100632.38
2018-11-04T20:32:05.311Z,100636.30
2018-11-04T20:34:34.104Z,100638.44
2018-11-04T20:37:02.885Z,100639.75
2018-11-04T20:39:37.519Z,100635.40
2018-11-04T20:42:06.582Z,100632.78
2018-11-04T20:44:39.295Z,100635.83
2018-11-04T20:47:07.949Z,100627.14
2018-11-04T20:49:41.854Z,100634.14
2018-11-04T20:52:10.696Z,100621.51
2018-11-04T20:54:39.408Z,100616.71
2018-11-04T20:57:13.080Z,100617.59
2018-11-04T20:59:42.000Z,100615.45
2018-11-04T21:02:10.973Z,100613.73
2018-11-04T21:04:39.746Z,100607.25
2018-11-04T21:07:09.232Z,100605.53
2018-11-04T21:09:38.075Z,100614.68
2018-11-04T21:12:07.224Z,100608.16
2018-11-04T21:14:36.958Z,100606.02
2018-11-04T21:17:05.882Z,100609.52
2018-11-04T21:19:34.777Z,100599.97
2018-11-04T21:22:03.410Z,100600.44
2018-11-04T21:24:32.561Z,100599.59
2018-11-04T21:27:01.207Z,100598.70
2018-11-04T21:29:30.462Z,100596.94
2018-11-04T21:31:58.653Z,100594.78
2018-11-04T21:34:27.446Z,100586.08
2018-11-04T21:36:55.932Z,100586.96
2018-11-04T21:39:24.513Z,100579.13
2018-11-04T21:41:56.074Z,100574.86
2018-11-04T21:44:24.702Z,100584.04
2018-11-04T21:46:53.386Z,100580.17
2018-11-04T21:49:22.183Z,100572.39
2018-11-04T21:51:51.554Z,100572.39
2018-11-04T21:54:20.179Z,100569.79
2018-11-04T21:56:49.113Z,100562.84
2018-11-04T21:59:17.664Z,100557.25
2018-11-04T22:01:46.245Z,100560.33
2018-11-04T22:04:15.015Z,100559.91
2018-11-04T22:06:44.148Z,100552.51
2018-11-04T22:11:46.984Z,100548.22
2018-11-04T22:14:15.736Z,100546.50
2018-11-04T22:16:44.474Z,100546.08
2018-11-04T22:19:13.069Z,100544.31
2018-11-04T22:21:42.095Z,100529.55
2018-11-04T22:24:10.649Z,100523.91
2018-11-04T22:26:39.366Z,100523.53
2018-11-04T22:29:08.374Z,100515.23
2018-11-04T22:31:37.898Z,100510.48
2018-11-04T22:34:07.335Z,100515.28
2018-11-04T22:36:36.329Z,100516.18
2018-11-04T22:39:06.614Z,100517.48
2018-11-04T22:41:35.133Z,100514.03
2018-11-04T22:44:04.757Z,100514.05
2018-11-04T22:46:33.562Z,100517.53
2018-11-04T22:49:02.965Z,100514.92
2018-11-04T22:51:31.677Z,100515.86
2018-11-04T22:54:00.462Z,100508.03
2018-11-04T22:56:29.072Z,100514.18
2018-11-04T22:58:57.805Z,100513.34
2018-11-04T23:01:26.499Z,100525.09
2018-11-04T23:03:55.065Z,100520.80
2018-11-04T23:06:23.877Z,100514.70
2018-11-04T23:08:52.472Z,100509.91
2018-11-04T23:11:21.757Z,100503.39
2018-11-04T23:13:50.320Z,100502.13
2018-11-04T23:16:18.923Z,100506.92
2018-11-04T23:18:47.544Z,100515.63
2018-11-04T23:21:15.983Z,100518.66
2018-11-04T23:23:44.462Z,100510.88
2018-11-04T23:26:13.157Z,100507.44
2018-11-04T23:28:42.806Z,100502.27
2018-11-04T23:31:11.348Z,100502.27
2018-11-04T23:33:39.826Z,100503.57
2018-11-04T23:36:09.316Z,100512.28
2018-11-04T23:38:37.954Z,100504.50
2018-11-04T23:41:06.930Z,100494.95
2018-11-04T23:43:36.228Z,100497.98
2018-11-04T23:46:05.252Z,100496.26
2018-11-04T23:48:33.784Z,100492.35
2018-11-04T23:51:02.270Z,100481.95
2018-11-04T23:53:31.231Z,100475.02
2018-11-04T23:56:00.483Z,100474.61
2018-11-04T23:58:29.037Z,100474.61
